sensor_id;sensor_type;location;lat;lon;timestamp;pressure;altitude;pressure_sealevel;temperature;humidity
41234;BME280;26968;42.686;23.352;2022-07-05T00:02:05;95361.88;;;25.81;nan
41234;BME280;26968;42.686;23.352;2022-07-05T00:04:31;95237.41;;;25.07;nan
41234;BME280;26968;42.686;23.352;2022-07-05T00:06:56;95361.69;;;25.93;nan
41234;BME280;26968;42.686;23.352;2022-07-05T00:09:40;95324.16;;;25.75;nan
41234;BME280;26968;42.686;23.352;2022-07-05T00:12:06;95371.50;;;26.01;nan
41234;BME280;26968;42.686;23.352;2022-07-05T00:14:32;95241.06;;;25.18;nan
41234;BME280;26968;42.686;23.352;2022-07-05T00:16:57;95281.16;;;25.28;nan
41234;BME280;26968;42.686;23.352;2022-07-05T00:19:22;95260.97;;;25.03;nan
41234;BME280;26968;42.686;23.352;2022-07-05T00:21:48;95243.00;;;24.95;nan
41234;BME280;26968;42.686;23.352;2022-07-05T00:24:13;95319.09;;;25.48;nan
41234;BME280;26968;42.686;23.352;2022-07-05T00:26:39;95033.75;;;23.49;nan
41234;BME280;26968;42.686;23.352;2022-07-05T00:29:04;95322.13;;;25.20;nan
41234;BME280;26968;42.686;23.352;2022-07-05T00:31:30;95338.91;;;25.52;nan
41234;BME280;26968;42.686;23.352;2022-07-05T00:33:55;95244.91;;;24.91;nan
41234;BME280;26968;42.686;23.352;2022-07-05T00:36:20;95335.97;;;25.37;nan
41234;BME280;26968;42.686;23.352;2022-07-05T00:38:46;95232.66;;;24.78;nan
41234;BME280;26968;42.686;23.352;2022-07-05T00:41:11;95330.59;;;25.41;nan
41234;BME280;26968;42.686;23.352;2022-07-05T00:43:37;95275.03;;;24.86;nan
41234;BME280;26968;42.686;23.352;2022-07-05T00:46:02;95334.28;;;25.29;nan
41234;BME280;26968;42.686;23.352;2022-07-05T00:48:28;95350.94;;;25.28;nan
41234;BME280;26968;42.686;23.352;2022-07-05T00:50:53;95349.56;;;25.37;nan
41234;BME280;26968;42.686;23.352;2022-07-05T00:53:19;95268.38;;;24.60;nan
41234;BME280;26968;42.686;23.352;2022-07-05T00:55:44;95308.22;;;24.79;nan
41234;BME280;26968;42.686;23.352;2022-07-05T00:58:11;95212.25;;;24.00;nan
41234;BME280;26968;42.686;23.352;2022-07-05T01:00:37;95285.97;;;24.47;nan
41234;BME280;26968;42.686;23.352;2022-07-05T01:03:04;95273.66;;;24.53;nan
41234;BME280;26968;42.686;23.352;2022-07-05T01:05:31;95324.97;;;24.85;nan
41234;BME280;26968;42.686;23.352;2022-07-05T01:07:59;95274.38;;;24.50;nan
41234;BME280;26968;42.686;23.352;2022-07-05T01:10:27;95334.75;;;24.89;nan
41234;BME280;26968;42.686;23.352;2022-07-05T01:12:52;95328.47;;;24.85;nan
41234;BME280;26968;42.686;23.352;2022-07-05T01:15:20;95286.88;;;24.55;nan
41234;BME280;26968;42.686;23.352;2022-07-05T01:17:47;95363.44;;;25.10;nan
41234;BME280;26968;42.686;23.352;2022-07-05T01:20:13;95249.34;;;24.18;nan
41234;BME280;26968;42.686;23.352;2022-07-05T01:22:55;95303.25;;;24.62;nan
41234;BME280;26968;42.686;23.352;2022-07-05T01:25:22;95317.78;;;24.73;nan
41234;BME280;26968;42.686;23.352;2022-07-05T01:27:48;95371.72;;;24.97;nan
41234;BME280;26968;42.686;23.352;2022-07-05T01:30:15;95365.72;;;24.88;nan
41234;BME280;26968;42.686;23.352;2022-07-05T01:32:40;95248.59;;;23.99;nan
41234;BME280;26968;42.686;23.352;2022-07-05T01:35:07;95316.97;;;24.50;nan
41234;BME280;26968;42.686;23.352;2022-07-05T01:37:33;95298.94;;;24.38;nan
41234;BME280;26968;42.686;23.352;2022-07-05T01:40:02;95376.22;;;24.90;nan
41234;BME280;26968;42.686;23.352;2022-07-05T01:42:28;95365.69;;;24.66;nan
41234;BME280;26968;42.686;23.352;2022-07-05T01:44:53;95277.19;;;24.15;nan
41234;BME280;26968;42.686;23.352;2022-07-05T01:47:19;95319.69;;;24.31;nan
41234;BME280;26968;42.686;23.352;2022-07-05T01:49:46;95319.34;;;24.32;nan
41234;BME280;26968;42.686;23.352;2022-07-05T01:52:13;95257.72;;;23.91;nan
41234;BME280;26968;42.686;23.352;2022-07-05T01:54:41;95290.50;;;24.05;nan
41234;BME280;26968;42.686;23.352;2022-07-05T01:57:07;95318.28;;;24.37;nan
41234;BME280;26968;42.686;23.352;2022-07-05T01:59:33;95361.84;;;24.67;nan
41234;BME280;26968;42.686;23.352;2022-07-05T02:02:00;95364.28;;;24.72;nan
41234;BME280;26968;42.686;23.352;2022-07-05T02:04:25;95323.97;;;24.51;nan
41234;BME280;26968;42.686;23.352;2022-07-05T02:06:51;95239.75;;;24.02;nan
41234;BME280;26968;42.686;23.352;2022-07-05T02:09:17;95246.09;;;23.90;nan
41234;BME280;26968;42.686;23.352;2022-07-05T02:11:42;95268.19;;;24.11;nan
41234;BME280;26968;42.686;23.352;2022-07-05T02:14:07;95345.78;;;24.58;nan
41234;BME280;26968;42.686;23.352;2022-07-05T02:16:33;95356.06;;;24.68;nan
41234;BME280;26968;42.686;23.352;2022-07-05T02:18:59;95321.84;;;24.41;nan
41234;BME280;26968;42.686;23.352;2022-07-05T02:21:25;95263.22;;;23.94;nan
41234;BME280;26968;42.686;23.352;2022-07-05T02:23:50;95364.72;;;24.54;nan
41234;BME280;26968;42.686;23.352;2022-07-05T02:26:16;95260.56;;;23.78;nan
41234;BME280;26968;42.686;23.352;2022-07-05T02:28:42;95291.78;;;24.11;nan
41234;BME280;26968;42.686;23.352;2022-07-05T02:31:07;95307.19;;;24.07;nan
41234;BME280;26968;42.686;23.352;2022-07-05T02:33:33;95364.00;;;24.38;nan
41234;BME280;26968;42.686;23.352;2022-07-05T02:36:11;95373.41;;;24.44;nan
41234;BME280;26968;42.686;23.352;2022-07-05T02:38:37;95289.38;;;23.87;nan
41234;BME280;26968;42.686;23.352;2022-07-05T02:41:08;95377.97;;;24.40;nan
41234;BME280;26968;42.686;23.352;2022-07-05T02:43:34;95313.00;;;23.90;nan
41234;BME280;26968;42.686;23.352;2022-07-05T02:46:01;95291.78;;;23.72;nan
41234;BME280;26968;42.686;23.352;2022-07-05T02:48:26;95384.50;;;24.20;nan
41234;BME280;26968;42.686;23.352;2022-07-05T02:50:53;95237.44;;;23.30;nan
41234;BME280;26968;42.686;23.352;2022-07-05T02:53:19;95329.91;;;23.83;nan
41234;BME280;26968;42.686;23.352;2022-07-05T02:55:44;95317.00;;;23.76;nan
41234;BME280;26968;42.686;23.352;2022-07-05T02:58:09;95303.34;;;23.54;nan
41234;BME280;26968;42.686;23.352;2022-07-05T03:00:35;95309.34;;;23.47;nan
41234;BME280;26968;42.686;23.352;2022-07-05T03:03:00;95386.22;;;23.93;nan
41234;BME280;26968;42.686;23.352;2022-07-05T03:05:27;95206.13;;;22.79;nan
41234;BME280;26968;42.686;23.352;2022-07-05T03:07:53;95351.25;;;23.69;nan
41234;BME280;26968;42.686;23.352;2022-07-05T03:10:18;95338.78;;;23.64;nan
41234;BME280;26968;42.686;23.352;2022-07-05T03:12:43;95390.41;;;23.91;nan
41234;BME280;26968;42.686;23.352;2022-07-05T03:15:09;95389.41;;;23.79;nan
41234;BME280;26968;42.686;23.352;2022-07-05T03:17:35;95365.59;;;23.54;nan
41234;BME280;26968;42.686;23.352;2022-07-05T03:20:00;95385.47;;;23.77;nan
41234;BME280;26968;42.686;23.352;2022-07-05T03:22:26;95385.47;;;23.77;nan
41234;BME280;26968;42.686;23.352;2022-07-05T03:24:51;95377.13;;;22.76;nan
41234;BME280;26968;42.686;23.352;2022-07-05T03:27:17;95331.94;;;22.20;nan
41234;BME280;26968;42.686;23.352;2022-07-05T03:29:42;95386.56;;;22.97;nan
41234;BME280;26968;42.686;23.352;2022-07-05T03:32:08;95329.38;;;22.67;nan
41234;BME280;26968;42.686;23.352;2022-07-05T03:34:33;95377.00;;;23.00;nan
41234;BME280;26968;42.686;23.352;2022-07-05T03:36:58;95276.53;;;22.54;nan
41234;BME280;26968;42.686;23.352;2022-07-05T03:39:24;95318.38;;;22.88;nan
41234;BME280;26968;42.686;23.352;2022-07-05T03:41:49;95390.53;;;23.31;nan
41234;BME280;26968;42.686;23.352;2022-07-05T03:44:15;95253.06;;;22.58;nan
41234;BME280;26968;42.686;23.352;2022-07-05T03:46:40;95366.03;;;23.40;nan
41234;BME280;26968;42.686;23.352;2022-07-05T03:49:05;95310.94;;;23.17;nan
41234;BME280;26968;42.686;23.352;2022-07-05T03:51:31;95345.16;;;23.40;nan
41234;BME280;26968;42.686;23.352;2022-07-05T03:53:56;95299.00;;;23.18;nan
41234;BME280;26968;42.686;23.352;2022-07-05T03:56:22;95379.72;;;23.78;nan
41234;BME280;26968;42.686;23.352;2022-07-05T03:58:52;95365.03;;;23.79;nan
41234;BME280;26968;42.686;23.352;2022-07-05T04:01:17;95373.03;;;23.57;nan
41234;BME280;26968;42.686;23.352;2022-07-05T04:03:43;95388.38;;;23.53;nan
41234;BME280;26968;42.686;23.352;2022-07-05T04:06:09;95255.63;;;22.83;nan
41234;BME280;26968;42.686;23.352;2022-07-05T04:08:35;95379.38;;;23.64;nan
41234;BME280;26968;42.686;23.352;2022-07-05T04:11:01;95238.22;;;22.80;nan
41234;BME280;26968;42.686;23.352;2022-07-05T04:13:26;95194.94;;;22.49;nan
41234;BME280;26968;42.686;23.352;2022-07-05T04:15:52;95305.72;;;23.24;nan
41234;BME280;26968;42.686;23.352;2022-07-05T04:18:18;95249.88;;;23.00;nan
41234;BME280;26968;42.686;23.352;2022-07-05T04:20:44;95376.38;;;23.85;nan
41234;BME280;26968;42.686;23.352;2022-07-05T04:23:09;95250.22;;;23.14;nan
41234;BME280;26968;42.686;23.352;2022-07-05T04:25:35;95336.66;;;23.58;nan
41234;BME280;26968;42.686;23.352;2022-07-05T04:28:00;95387.50;;;23.80;nan
41234;BME280;26968;42.686;23.352;2022-07-05T04:30:26;95390.56;;;23.63;nan
41234;BME280;26968;42.686;23.352;2022-07-05T04:32:51;95305.09;;;23.15;nan
41234;BME280;26968;42.686;23.352;2022-07-05T04:35:17;95382.53;;;23.51;nan
41234;BME280;26968;42.686;23.352;2022-07-05T04:37:43;95247.88;;;22.22;nan
41234;BME280;26968;42.686;23.352;2022-07-05T04:40:10;95250.03;;;22.16;nan
41234;BME280;26968;42.686;23.352;2022-07-05T04:42:37;95391.75;;;23.02;nan
41234;BME280;26968;42.686;23.352;2022-07-05T04:45:03;95280.13;;;22.30;nan
41234;BME280;26968;42.686;23.352;2022-07-05T04:47:28;95369.50;;;23.09;nan
41234;BME280;26968;42.686;23.352;2022-07-05T04:49:55;95257.66;;;22.26;nan
41234;BME280;26968;42.686;23.352;2022-07-05T04:52:22;95275.22;;;22.64;nan
41234;BME280;26968;42.686;23.352;2022-07-05T04:54:47;95325.78;;;22.91;nan
41234;BME280;26968;42.686;23.352;2022-07-05T04:57:12;95303.97;;;22.84;nan
41234;BME280;26968;42.686;23.352;2022-07-05T04:59:38;95333.53;;;22.77;nan
41234;BME280;26968;42.686;23.352;2022-07-05T05:02:04;95328.81;;;23.05;nan
41234;BME280;26968;42.686;23.352;2022-07-05T05:04:29;95331.72;;;23.13;nan
41234;BME280;26968;42.686;23.352;2022-07-05T05:06:55;95288.88;;;22.83;nan
41234;BME280;26968;42.686;23.352;2022-07-05T05:09:20;95306.34;;;23.01;nan
41234;BME280;26968;42.686;23.352;2022-07-05T05:11:46;95306.41;;;23.05;nan
41234;BME280;26968;42.686;23.352;2022-07-05T05:14:12;95383.47;;;23.58;nan
41234;BME280;26968;42.686;23.352;2022-07-05T05:16:37;95359.50;;;23.57;nan
41234;BME280;26968;42.686;23.352;2022-07-05T05:19:03;95393.06;;;23.87;nan
41234;BME280;26968;42.686;23.352;2022-07-05T05:21:28;95340.72;;;23.48;nan
41234;BME280;26968;42.686;23.352;2022-07-05T05:23:53;95289.63;;;23.31;nan
41234;BME280;26968;42.686;23.352;2022-07-05T05:26:19;95338.34;;;23.46;nan
41234;BME280;26968;42.686;23.352;2022-07-05T05:28:44;95393.25;;;23.78;nan
41234;BME280;26968;42.686;23.352;2022-07-05T05:31:10;95393.84;;;23.88;nan
41234;BME280;26968;42.686;23.352;2022-07-05T05:33:36;95284.06;;;22.92;nan
41234;BME280;26968;42.686;23.352;2022-07-05T05:36:02;95312.19;;;23.03;nan
41234;BME280;26968;42.686;23.352;2022-07-05T05:38:27;95356.97;;;23.48;nan
41234;BME280;26968;42.686;23.352;2022-07-05T05:40:53;95321.44;;;23.50;nan
41234;BME280;26968;42.686;23.352;2022-07-05T05:43:18;95364.75;;;23.84;nan
41234;BME280;26968;42.686;23.352;2022-07-05T05:45:44;95369.53;;;23.91;nan
41234;BME280;26968;42.686;23.352;2022-07-05T05:48:09;95246.72;;;23.14;nan
41234;BME280;26968;42.686;23.352;2022-07-05T05:50:37;95366.53;;;23.77;nan
41234;BME280;26968;42.686;23.352;2022-07-05T05:53:04;95395.38;;;24.04;nan
41234;BME280;26968;42.686;23.352;2022-07-05T05:55:31;95348.25;;;23.74;nan
41234;BME280;26968;42.686;23.352;2022-07-05T05:57:57;95323.72;;;23.67;nan
41234;BME280;26968;42.686;23.352;2022-07-05T06:00:35;95396.38;;;24.31;nan
41234;BME280;26968;42.686;23.352;2022-07-05T06:03:00;95372.84;;;24.00;nan
41234;BME280;26968;42.686;23.352;2022-07-05T06:05:26;95397.38;;;24.23;nan
41234;BME280;26968;42.686;23.352;2022-07-05T06:07:54;95395.75;;;24.03;nan
41234;BME280;26968;42.686;23.352;2022-07-05T06:10:22;95334.22;;;23.68;nan
41234;BME280;26968;42.686;23.352;2022-07-05T06:12:49;95400.28;;;23.99;nan
41234;BME280;26968;42.686;23.352;2022-07-05T06:15:15;95324.81;;;23.46;nan
41234;BME280;26968;42.686;23.352;2022-07-05T06:17:40;95365.72;;;23.76;nan
41234;BME280;26968;42.686;23.352;2022-07-05T06:20:08;95335.53;;;23.59;nan
41234;BME280;26968;42.686;23.352;2022-07-05T06:22:34;95329.88;;;23.64;nan
41234;BME280;26968;42.686;23.352;2022-07-05T06:25:00;95284.91;;;23.43;nan
41234;BME280;26968;42.686;23.352;2022-07-05T06:27:25;95350.69;;;23.95;nan
41234;BME280;26968;42.686;23.352;2022-07-05T06:29:51;95307.97;;;23.53;nan
41234;BME280;26968;42.686;23.352;2022-07-05T06:32:16;95338.50;;;23.69;nan
41234;BME280;26968;42.686;23.352;2022-07-05T06:34:42;95376.19;;;23.94;nan
41234;BME280;26968;42.686;23.352;2022-07-05T06:37:07;95363.78;;;23.93;nan
41234;BME280;26968;42.686;23.352;2022-07-05T06:39:32;95281.50;;;23.62;nan
41234;BME280;26968;42.686;23.352;2022-07-05T06:41:59;95404.78;;;24.45;nan
41234;BME280;26968;42.686;23.352;2022-07-05T06:44:24;95322.50;;;23.99;nan
41234;BME280;26968;42.686;23.352;2022-07-05T06:46:50;95397.72;;;24.60;nan
41234;BME280;26968;42.686;23.352;2022-07-05T06:49:15;95391.88;;;24.77;nan
41234;BME280;26968;42.686;23.352;2022-07-05T06:51:41;95285.47;;;24.22;nan
41234;BME280;26968;42.686;23.352;2022-07-05T06:54:06;95389.47;;;24.91;nan
41234;BME280;26968;42.686;23.352;2022-07-05T06:56:32;95387.00;;;25.06;nan
41234;BME280;26968;42.686;23.352;2022-07-05T06:58:57;95379.81;;;24.94;nan
41234;BME280;26968;42.686;23.352;2022-07-05T07:01:22;95301.56;;;24.54;nan
41234;BME280;26968;42.686;23.352;2022-07-05T07:03:48;95265.81;;;24.26;nan
41234;BME280;26968;42.686;23.352;2022-07-05T07:06:14;95378.19;;;25.12;nan
41234;BME280;26968;42.686;23.352;2022-07-05T07:08:40;95271.66;;;24.50;nan
41234;BME280;26968;42.686;23.352;2022-07-05T07:11:24;95315.31;;;24.65;nan
41234;BME280;26968;42.686;23.352;2022-07-05T07:13:49;95270.16;;;24.53;nan
41234;BME280;26968;42.686;23.352;2022-07-05T07:16:15;95352.09;;;25.27;nan
41234;BME280;26968;42.686;23.352;2022-07-05T07:18:40;95346.06;;;25.14;nan
41234;BME280;26968;42.686;23.352;2022-07-05T07:21:06;95337.78;;;25.30;nan
41234;BME280;26968;42.686;23.352;2022-07-05T07:23:31;95382.69;;;25.69;nan
41234;BME280;26968;42.686;23.352;2022-07-05T07:25:56;95316.88;;;25.30;nan
41234;BME280;26968;42.686;23.352;2022-07-05T07:28:22;95332.59;;;25.44;nan
41234;BME280;26968;42.686;23.352;2022-07-05T07:30:49;95355.31;;;25.32;nan
41234;BME280;26968;42.686;23.352;2022-07-05T07:33:14;95249.81;;;24.63;nan
41234;BME280;26968;42.686;23.352;2022-07-05T07:35:40;95310.91;;;24.98;nan
41234;BME280;26968;42.686;23.352;2022-07-05T07:38:05;95267.66;;;24.86;nan
41234;BME280;26968;42.686;23.352;2022-07-05T07:40:31;95380.44;;;25.75;nan
41234;BME280;26968;42.686;23.352;2022-07-05T07:42:56;95296.47;;;25.40;nan
41234;BME280;26968;42.686;23.352;2022-07-05T07:45:22;95293.56;;;25.56;nan
41234;BME280;26968;42.686;23.352;2022-07-05T07:47:47;95371.00;;;26.22;nan
41234;BME280;26968;42.686;23.352;2022-07-05T07:50:13;95364.91;;;26.28;nan
41234;BME280;26968;42.686;23.352;2022-07-05T07:52:38;95314.22;;;25.87;nan
41234;BME280;26968;42.686;23.352;2022-07-05T07:55:05;95263.16;;;25.69;nan
41234;BME280;26968;42.686;23.352;2022-07-05T07:57:31;95321.84;;;26.04;nan
41234;BME280;26968;42.686;23.352;2022-07-05T07:59:57;95368.28;;;26.51;nan
41234;BME280;26968;42.686;23.352;2022-07-05T08:02:22;95333.94;;;26.40;nan
41234;BME280;26968;42.686;23.352;2022-07-05T08:04:49;95227.81;;;25.66;nan
41234;BME280;26968;42.686;23.352;2022-07-05T08:07:15;95330.41;;;26.36;nan
41234;BME280;26968;42.686;23.352;2022-07-05T08:09:42;95348.06;;;26.49;nan
41234;BME280;26968;42.686;23.352;2022-07-05T08:12:08;95314.34;;;26.24;nan
41234;BME280;26968;42.686;23.352;2022-07-05T08:14:33;95308.63;;;26.32;nan
41234;BME280;26968;42.686;23.352;2022-07-05T08:16:59;95297.78;;;26.36;nan
41234;BME280;26968;42.686;23.352;2022-07-05T08:19:24;95310.81;;;26.53;nan
41234;BME280;26968;42.686;23.352;2022-07-05T08:22:09;95316.75;;;26.62;nan
41234;BME280;26968;42.686;23.352;2022-07-05T08:24:38;95352.97;;;27.07;nan
41234;BME280;26968;42.686;23.352;2022-07-05T08:27:07;95332.44;;;26.79;nan
41234;BME280;26968;42.686;23.352;2022-07-05T08:29:33;95358.31;;;26.96;nan
41234;BME280;26968;42.686;23.352;2022-07-05T08:31:59;95318.69;;;26.62;nan
41234;BME280;26968;42.686;23.352;2022-07-05T08:34:24;95267.22;;;26.46;nan
41234;BME280;26968;42.686;23.352;2022-07-05T08:36:50;95306.38;;;26.75;nan
41234;BME280;26968;42.686;23.352;2022-07-05T08:39:16;95225.53;;;26.35;nan
41234;BME280;26968;42.686;23.352;2022-07-05T08:41:43;95267.50;;;26.74;nan
41234;BME280;26968;42.686;23.352;2022-07-05T08:44:13;95273.75;;;26.78;nan
41234;BME280;26968;42.686;23.352;2022-07-05T08:46:41;95296.78;;;26.88;nan
41234;BME280;26968;42.686;23.352;2022-07-05T08:49:09;95230.84;;;26.61;nan
41234;BME280;26968;42.686;23.352;2022-07-05T08:51:40;95333.03;;;27.40;nan
41234;BME280;26968;42.686;23.352;2022-07-05T08:54:11;95328.81;;;27.46;nan
41234;BME280;26968;42.686;23.352;2022-07-05T08:56:37;95323.38;;;27.49;nan
41234;BME280;26968;42.686;23.352;2022-07-05T08:59:03;95271.38;;;27.14;nan
41234;BME280;26968;42.686;23.352;2022-07-05T09:01:29;95154.31;;;26.22;nan
41234;BME280;26968;42.686;23.352;2022-07-05T09:04:04;95266.25;;;27.05;nan
41234;BME280;26968;42.686;23.352;2022-07-05T09:06:31;95329.75;;;27.64;nan
41234;BME280;26968;42.686;23.352;2022-07-05T09:08:58;95323.97;;;27.73;nan
41234;BME280;26968;42.686;23.352;2022-07-05T09:11:29;95277.41;;;27.37;nan
41234;BME280;26968;42.686;23.352;2022-07-05T09:13:56;95294.56;;;27.48;nan
41234;BME280;26968;42.686;23.352;2022-07-05T09:16:21;95213.03;;;27.11;nan
41234;BME280;26968;42.686;23.352;2022-07-05T09:18:53;95271.75;;;27.60;nan
41234;BME280;26968;42.686;23.352;2022-07-05T09:21:22;95306.47;;;27.77;nan
41234;BME280;26968;42.686;23.352;2022-07-05T09:23:56;95300.75;;;27.96;nan
41234;BME280;26968;42.686;23.352;2022-07-05T09:26:54;95287.13;;;28.00;nan
41234;BME280;26968;42.686;23.352;2022-07-05T09:29:26;95250.16;;;27.99;nan
41234;BME280;26968;42.686;23.352;2022-07-05T09:31:51;95256.00;;;28.08;nan
41234;BME280;26968;42.686;23.352;2022-07-05T09:34:18;95292.41;;;28.44;nan
41234;BME280;26968;42.686;23.352;2022-07-05T09:39:35;95231.13;;;28.13;nan
41234;BME280;26968;42.686;23.352;2022-07-05T09:42:11;95279.22;;;28.60;nan
41234;BME280;26968;42.686;23.352;2022-07-05T09:44:38;95255.38;;;28.47;nan
41234;BME280;26968;42.686;23.352;2022-07-05T09:47:11;95242.94;;;28.56;nan
41234;BME280;26968;42.686;23.352;2022-07-05T09:49:39;95181.78;;;28.75;nan
41234;BME280;26968;42.686;23.352;2022-07-05T09:52:06;95266.34;;;30.03;nan
41234;BME280;26968;42.686;23.352;2022-07-05T09:54:32;95232.84;;;30.64;nan
41234;BME280;26968;42.686;23.352;2022-07-05T09:56:58;95275.88;;;32.05;nan
41234;BME280;26968;42.686;23.352;2022-07-05T09:59:23;95182.09;;;32.44;nan
41234;BME280;26968;42.686;23.352;2022-07-05T10:01:49;95170.09;;;33.11;nan
41234;BME280;26968;42.686;23.352;2022-07-05T10:04:15;95184.13;;;34.23;nan
41234;BME280;26968;42.686;23.352;2022-07-05T10:06:41;95246.00;;;35.06;nan
41234;BME280;26968;42.686;23.352;2022-07-05T10:09:09;95263.28;;;35.88;nan
41234;BME280;26968;42.686;23.352;2022-07-05T10:11:40;95205.69;;;35.90;nan
41234;BME280;26968;42.686;23.352;2022-07-05T10:14:14;95247.38;;;36.62;nan
41234;BME280;26968;42.686;23.352;2022-07-05T10:16:41;95186.84;;;36.93;nan
41234;BME280;26968;42.686;23.352;2022-07-05T10:19:15;95220.38;;;37.55;nan
41234;BME280;26968;42.686;23.352;2022-07-05T10:21:41;95171.91;;;37.51;nan
41234;BME280;26968;42.686;23.352;2022-07-05T10:24:07;95179.63;;;37.68;nan
41234;BME280;26968;42.686;23.352;2022-07-05T10:26:33;95202.31;;;37.98;nan
41234;BME280;26968;42.686;23.352;2022-07-05T10:29:00;95197.16;;;38.09;nan
41234;BME280;26968;42.686;23.352;2022-07-05T10:31:26;95236.31;;;38.42;nan
41234;BME280;26968;42.686;23.352;2022-07-05T10:33:53;95193.94;;;38.10;nan
41234;BME280;26968;42.686;23.352;2022-07-05T10:36:20;95184.94;;;38.19;nan
41234;BME280;26968;42.686;23.352;2022-07-05T10:38:46;95216.25;;;38.38;nan
41234;BME280;26968;42.686;23.352;2022-07-05T10:41:14;95106.72;;;37.84;nan
41234;BME280;26968;42.686;23.352;2022-07-05T10:43:42;95197.38;;;38.14;nan
41234;BME280;26968;42.686;23.352;2022-07-05T10:46:08;95168.31;;;38.19;nan
41234;BME280;26968;42.686;23.352;2022-07-05T10:48:34;95176.56;;;38.41;nan
41234;BME280;26968;42.686;23.352;2022-07-05T10:51:00;95218.16;;;38.72;nan
41234;BME280;26968;42.686;23.352;2022-07-05T10:54:10;95214.00;;;38.67;nan
41234;BME280;26968;42.686;23.352;2022-07-05T10:56:35;95223.19;;;38.64;nan
41234;BME280;26968;42.686;23.352;2022-07-05T10:59:11;95150.13;;;38.49;nan
41234;BME280;26968;42.686;23.352;2022-07-05T11:01:41;95193.78;;;38.57;nan
41234;BME280;26968;42.686;23.352;2022-07-05T11:11:30;95196.91;;;39.09;nan
41234;BME280;26968;42.686;23.352;2022-07-05T11:13:56;95144.28;;;38.87;nan
41234;BME280;26968;42.686;23.352;2022-07-05T11:16:33;95145.69;;;38.82;nan
41234;BME280;26968;42.686;23.352;2022-07-05T11:19:16;95189.16;;;38.94;nan
41234;BME280;26968;42.686;23.352;2022-07-05T11:22:05;95192.28;;;39.06;nan
41234;BME280;26968;42.686;23.352;2022-07-05T11:24:32;95159.34;;;39.26;nan
41234;BME280;26968;42.686;23.352;2022-07-05T11:26:58;95173.13;;;39.57;nan
41234;BME280;26968;42.686;23.352;2022-07-05T11:29:43;95177.91;;;39.74;nan
41234;BME280;26968;42.686;23.352;2022-07-05T11:32:11;95175.56;;;39.55;nan
41234;BME280;26968;42.686;23.352;2022-07-05T11:34:39;95100.84;;;38.75;nan
41234;BME280;26968;42.686;23.352;2022-07-05T11:42:50;95131.66;;;38.46;nan
41234;BME280;26968;42.686;23.352;2022-07-05T11:45:16;95162.53;;;38.57;nan
41234;BME280;26968;42.686;23.352;2022-07-05T11:47:42;95168.47;;;38.86;nan
41234;BME280;26968;42.686;23.352;2022-07-05T11:50:09;95105.09;;;38.57;nan
41234;BME280;26968;42.686;23.352;2022-07-05T11:52:36;95089.16;;;38.80;nan
41234;BME280;26968;42.686;23.352;2022-07-05T11:55:04;95093.50;;;38.90;nan
41234;BME280;26968;42.686;23.352;2022-07-05T11:57:30;95071.31;;;38.90;nan
41234;BME280;26968;42.686;23.352;2022-07-05T11:59:56;95117.63;;;39.48;nan
41234;BME280;26968;42.686;23.352;2022-07-05T12:02:21;95145.97;;;39.61;nan
41234;BME280;26968;42.686;23.352;2022-07-05T12:04:52;95126.97;;;39.23;nan
41234;BME280;26968;42.686;23.352;2022-07-05T12:07:27;95141.22;;;39.43;nan
41234;BME280;26968;42.686;23.352;2022-07-05T12:09:53;95091.22;;;39.16;nan
41234;BME280;26968;42.686;23.352;2022-07-05T12:12:37;95130.88;;;39.44;nan
41234;BME280;26968;42.686;23.352;2022-07-05T12:15:12;95115.59;;;39.39;nan
41234;BME280;26968;42.686;23.352;2022-07-05T12:17:39;95069.19;;;39.12;nan
41234;BME280;26968;42.686;23.352;2022-07-05T12:20:07;95106.66;;;39.71;nan
41234;BME280;26968;42.686;23.352;2022-07-05T12:22:36;95125.63;;;39.64;nan
41234;BME280;26968;42.686;23.352;2022-07-05T12:25:04;95126.06;;;39.26;nan
41234;BME280;26968;42.686;23.352;2022-07-05T12:27:33;95102.31;;;39.16;nan
41234;BME280;26968;42.686;23.352;2022-07-05T12:29:59;95089.97;;;39.08;nan
41234;BME280;26968;42.686;23.352;2022-07-05T12:32:24;95110.25;;;38.86;nan
41234;BME280;26968;42.686;23.352;2022-07-05T12:34:50;95074.59;;;39.16;nan
41234;BME280;26968;42.686;23.352;2022-07-05T12:37:26;95117.75;;;39.53;nan
41234;BME280;26968;42.686;23.352;2022-07-05T12:40:04;95112.81;;;39.75;nan
41234;BME280;26968;42.686;23.352;2022-07-05T12:42:31;95115.91;;;39.87;nan
41234;BME280;26968;42.686;23.352;2022-07-05T12:45:16;95066.88;;;39.56;nan
41234;BME280;26968;42.686;23.352;2022-07-05T12:47:51;95111.59;;;39.49;nan
41234;BME280;26968;42.686;23.352;2022-07-05T12:50:28;95047.63;;;39.16;nan
41234;BME280;26968;42.686;23.352;2022-07-05T12:53:05;95013.75;;;39.21;nan
41234;BME280;26968;42.686;23.352;2022-07-05T12:55:50;95101.69;;;39.75;nan
41234;BME280;26968;42.686;23.352;2022-07-05T12:58:55;95061.50;;;39.53;nan
41234;BME280;26968;42.686;23.352;2022-07-05T13:01:41;95098.13;;;40.02;nan
41234;BME280;26968;42.686;23.352;2022-07-05T13:04:17;95085.00;;;40.12;nan
41234;BME280;26968;42.686;23.352;2022-07-05T13:09:28;95019.75;;;39.98;nan
41234;BME280;26968;42.686;23.352;2022-07-05T13:14:32;95037.47;;;40.10;nan
41234;BME280;26968;42.686;23.352;2022-07-05T13:16:57;95045.19;;;40.06;nan
41234;BME280;26968;42.686;23.352;2022-07-05T13:19:23;94992.03;;;40.22;nan
41234;BME280;26968;42.686;23.352;2022-07-05T13:21:49;95033.72;;;40.88;nan
41234;BME280;26968;42.686;23.352;2022-07-05T13:24:15;95044.38;;;41.28;nan
41234;BME280;26968;42.686;23.352;2022-07-05T13:26:40;95022.38;;;41.54;nan
41234;BME280;26968;42.686;23.352;2022-07-05T13:29:06;95058.41;;;42.02;nan
41234;BME280;26968;42.686;23.352;2022-07-05T13:31:31;95020.06;;;41.52;nan
41234;BME280;26968;42.686;23.352;2022-07-05T13:33:58;95064.63;;;41.96;nan